Time;durP1;ratioP1;P1;durP2;ratioP2;P2;SDS_P1;SDS_P2;PMS_P1;PMS_P2;Temp;Humidity;BMP_temperature;BMP_pressure;BME280_temperature;BME280_humidity;BME280_pressure;Samples;Min_cycle;Max_cycle;Signal;HPM_P1;HPM_P2
2022/06/25 00:00:53;;;;;;;;;3.33;2.33;;;;;-147.17;100.00;-15917.19;5008088;28;51260;-79
2022/06/25 00:03:18;;;;;;;;;2.33;2.33;;;;;-147.17;100.00;-15917.19;5006282;28;51241;-80
2022/06/25 00:05:44;;;;;;;;;2.00;2.00;;;;;-147.17;100.00;-15917.19;5014273;28;53174;-81
2022/06/25 00:08:09;;;;;;;;;4.00;3.00;;;;;-147.17;100.00;-15917.19;5000016;28;50931;-81
2022/06/25 00:10:34;;;;;;;;;4.00;4.00;;;;;-147.17;100.00;-15917.19;5002033;28;51360;-79
2022/06/25 00:13:00;;;;;;;;;2.33;2.33;;;;;-147.17;100.00;-15917.19;5026164;28;51092;-79
2022/06/25 00:15:25;;;;;;;;;2.00;2.00;;;;;-147.17;100.00;-15917.19;5005350;28;51770;-78
2022/06/25 00:17:51;;;;;;;;;3.67;3.00;;;;;-147.17;100.00;-15917.19;5013648;28;51184;-77
2022/06/25 00:20:16;;;;;;;;;3.00;3.00;;;;;-147.17;100.00;-15917.19;5005798;28;51105;-79
2022/06/25 00:22:42;;;;;;;;;2.33;2.33;;;;;-147.17;100.00;-15917.19;5010730;28;50987;-78
2022/06/25 00:25:08;;;;;;;;;3.00;2.33;;;;;-147.17;100.00;-15917.19;5001869;28;52822;-78
2022/06/25 00:27:33;;;;;;;;;2.00;2.00;;;;;-147.17;100.00;-15917.19;4995236;28;51334;-79
2022/06/25 00:29:59;;;;;;;;;3.00;3.00;;;;;-147.17;100.00;-15917.19;5009587;28;51275;-77
2022/06/25 00:32:24;;;;;;;;;3.33;3.33;;;;;-147.17;100.00;-15917.19;5006100;28;51090;-78
2022/06/25 00:34:50;;;;;;;;;2.00;2.00;;;;;-147.17;100.00;-15917.19;5008544;28;52738;-79
2022/06/25 00:37:15;;;;;;;;;4.00;3.00;;;;;-147.17;100.00;-15917.19;5001560;28;51284;-77
2022/06/25 00:39:43;;;;;;;;;4.00;3.00;;;;;-147.17;100.00;-15917.19;5011643;28;51310;-76
2022/06/25 00:42:10;;;;;;;;;3.33;3.00;;;;;-147.17;100.00;-15917.19;4999708;28;51100;-77
2022/06/25 00:44:37;;;;;;;;;3.33;3.00;;;;;-147.17;100.00;-15917.19;5011369;28;52811;-76
2022/06/25 00:47:04;;;;;;;;;3.00;3.00;;;;;-147.17;100.00;-15917.19;5005150;28;51299;-76
2022/06/25 00:49:29;;;;;;;;;5.00;3.33;;;;;-147.17;100.00;-15917.19;5021775;28;51196;-76
2022/06/25 00:51:56;;;;;;;;;2.00;2.00;;;;;-147.17;100.00;-15917.19;5017271;28;51260;-76
2022/06/25 00:54:24;;;;;;;;;3.00;2.67;;;;;-147.17;100.00;-15917.19;5009131;28;51826;-78
2022/06/25 00:56:51;;;;;;;;;2.67;2.67;;;;;-147.17;100.00;-15917.19;5005769;28;51069;-77
2022/06/25 00:59:27;;;;;;;;;2.33;2.00;;;;;-147.17;100.00;-15917.19;5007518;28;51122;-78
2022/06/25 01:01:52;;;;;;;;;3.00;3.00;;;;;-147.17;100.00;-15917.19;5007806;28;51104;-77
2022/06/25 01:04:17;;;;;;;;;2.33;2.33;;;;;-147.17;100.00;-15917.19;4985437;28;54087;-77
2022/06/25 01:06:43;;;;;;;;;4.00;4.00;;;;;-147.17;100.00;-15917.19;5000292;28;51202;-76
2022/06/25 01:09:08;;;;;;;;;4.67;4.67;;;;;-147.17;100.00;-15917.19;4999218;28;51252;-76
2022/06/25 01:11:34;;;;;;;;;4.00;4.00;;;;;-147.17;100.00;-15917.19;4998047;28;51088;-76
2022/06/25 01:14:06;;;;;;;;;3.00;3.00;;;;;-147.17;100.00;-15917.19;5020139;28;55637;-77
2022/06/25 01:16:31;;;;;;;;;3.67;2.33;;;;;-147.17;100.00;-15917.19;5022948;28;51158;-77
2022/06/25 01:18:56;;;;;;;;;2.67;2.67;;;;;-147.17;100.00;-15917.19;4996969;28;50949;-77
2022/06/25 01:21:22;;;;;;;;;3.67;3.67;;;;;-147.17;100.00;-15917.19;4993881;28;51045;-77
2022/06/25 01:23:47;;;;;;;;;4.00;4.00;;;;;-147.17;100.00;-15917.19;4994746;28;51178;-78
2022/06/25 01:26:13;;;;;;;;;4.33;4.00;;;;;-147.17;100.00;-15917.19;4993099;28;51106;-77
2022/06/25 01:28:38;;;;;;;;;4.33;3.67;;;;;-147.17;100.00;-15917.19;4996858;28;51215;-77
2022/06/25 01:31:03;;;;;;;;;3.67;3.67;;;;;-147.17;100.00;-15917.19;4995964;28;51017;-76
2022/06/25 01:33:29;;;;;;;;;2.00;2.00;;;;;-147.17;100.00;-15917.19;4998151;28;58362;-78
2022/06/25 01:35:54;;;;;;;;;4.00;4.00;;;;;-147.17;100.00;-15917.19;5007631;28;51368;-77
2022/06/25 01:38:20;;;;;;;;;3.00;3.00;;;;;-147.17;100.00;-15917.19;5000485;28;51115;-77
2022/06/25 01:40:46;;;;;;;;;3.00;3.00;;;;;-147.17;100.00;-15917.19;5004892;28;51211;-76
2022/06/25 01:43:11;;;;;;;;;3.00;3.00;;;;;-147.17;100.00;-15917.19;5000972;28;51882;-76
2022/06/25 01:45:37;;;;;;;;;3.00;3.00;;;;;-147.17;100.00;-15917.19;5018245;28;51030;-77
2022/06/25 01:48:07;;;;;;;;;4.00;2.00;;;;;-147.17;100.00;-15917.19;5009476;28;51696;-74
2022/06/25 01:50:34;;;;;;;;;3.67;3.67;;;;;-147.17;100.00;-15917.19;5003343;28;51199;-78
2022/06/25 01:52:59;;;;;;;;;6.00;6.00;;;;;-147.17;100.00;-15917.19;4991861;28;51768;-75
2022/06/25 01:55:25;;;;;;;;;4.67;4.67;;;;;-147.17;100.00;-15917.19;4996754;28;51007;-76
2022/06/25 01:57:51;;;;;;;;;2.00;1.33;;;;;-147.17;100.00;-15917.19;4994475;28;50892;-77
2022/06/25 02:00:21;;;;;;;;;2.00;2.00;;;;;-147.17;100.00;-15917.19;5001378;28;51279;-76
2022/06/25 02:02:47;;;;;;;;;3.00;2.00;;;;;-147.17;100.00;-15917.19;5009574;28;51087;-76
2022/06/25 02:05:15;;;;;;;;;2.00;2.00;;;;;-147.17;100.00;-15917.19;5007301;28;51172;-77
2022/06/25 02:07:41;;;;;;;;;2.67;2.67;;;;;-147.17;100.00;-15917.19;5000694;28;51103;-77
2022/06/25 02:10:07;;;;;;;;;3.00;3.00;;;;;-147.17;100.00;-15917.19;5005882;28;51189;-77
2022/06/25 02:12:32;;;;;;;;;6.00;5.00;;;;;-147.17;100.00;-15917.19;5024549;28;54198;-76
2022/06/25 02:14:58;;;;;;;;;3.00;2.00;;;;;-147.17;100.00;-15917.19;5015642;28;51023;-77
2022/06/25 02:17:23;;;;;;;;;2.33;2.33;;;;;-147.17;100.00;-15917.19;5008378;28;51558;-78
2022/06/25 02:19:49;;;;;;;;;2.00;2.00;;;;;-147.17;100.00;-15917.19;5006149;28;51181;-77
2022/06/25 02:22:14;;;;;;;;;3.00;2.33;;;;;-147.17;100.00;-15917.19;5001048;28;52006;-76
2022/06/25 02:24:43;;;;;;;;;4.00;2.00;;;;;-147.17;100.00;-15917.19;4995795;28;50901;-76
2022/06/25 02:27:09;;;;;;;;;1.67;1.00;;;;;-147.17;100.00;-15917.19;4997391;28;51198;-76
2022/06/25 02:29:34;;;;;;;;;3.00;3.00;;;;;-147.17;100.00;-15917.19;5004862;28;51382;-75
2022/06/25 02:32:00;;;;;;;;;1.00;1.00;;;;;-147.17;100.00;-15917.19;5000002;28;51209;-75
2022/06/25 02:34:26;;;;;;;;;2.00;2.00;;;;;-147.17;100.00;-15917.19;4996352;28;51126;-77
2022/06/25 02:36:52;;;;;;;;;1.67;1.33;;;;;-147.17;100.00;-15917.19;4994940;28;51232;-77
2022/06/25 02:39:17;;;;;;;;;5.00;2.33;;;;;-147.17;100.00;-15917.19;5004756;28;51467;-77
2022/06/25 02:41:43;;;;;;;;;2.00;2.00;;;;;-147.17;100.00;-15917.19;5028393;28;53803;-74
2022/06/25 02:44:09;;;;;;;;;1.67;1.67;;;;;-147.17;100.00;-15917.19;5015381;28;50839;-76
2022/06/25 02:46:34;;;;;;;;;1.67;1.67;;;;;-147.17;100.00;-15917.19;5005677;28;51225;-77
2022/06/25 02:48:59;;;;;;;;;2.33;2.33;;;;;-147.17;100.00;-15917.19;5004098;28;51246;-75
2022/06/25 02:51:25;;;;;;;;;2.00;2.00;;;;;-147.17;100.00;-15917.19;5001087;28;51732;-76
2022/06/25 02:53:50;;;;;;;;;1.00;0.67;;;;;-147.17;100.00;-15917.19;5007004;28;51551;-75
2022/06/25 02:59:03;;;;;;;;;2.00;1.67;;;;;-147.17;100.00;-15917.19;5013309;28;51124;-76
2022/06/25 03:01:29;;;;;;;;;2.00;2.00;;;;;-147.17;100.00;-15917.19;4997057;28;52974;-76
2022/06/25 03:03:56;;;;;;;;;2.00;2.00;;;;;-147.17;100.00;-15917.19;5005643;28;51292;-77
2022/06/25 03:06:22;;;;;;;;;0.67;0.67;;;;;-147.17;100.00;-15917.19;5013663;28;50999;-74
2022/06/25 03:08:48;;;;;;;;;1.33;0.67;;;;;-147.17;100.00;-15917.19;5013119;28;51217;-75
2022/06/25 03:11:14;;;;;;;;;41.50;36.25;;;;;-147.17;100.00;-15917.19;5006827;28;52021;-76
2022/06/25 03:13:40;;;;;;;;;1.67;1.67;;;;;-147.17;100.00;-15917.19;5001146;28;51049;-77
2022/06/25 03:16:07;;;;;;;;;1.00;0.67;;;;;-147.17;100.00;-15917.19;5004119;28;51145;-76
2022/06/25 03:18:33;;;;;;;;;0.67;0.67;;;;;-147.17;100.00;-15917.19;4998984;28;51124;-75
2022/06/25 03:20:59;;;;;;;;;0.67;0.67;;;;;-147.17;100.00;-15917.19;4995187;28;52106;-75
2022/06/25 03:23:24;;;;;;;;;0.00;0.00;;;;;-147.17;100.00;-15917.19;4994734;28;51159;-76
2022/06/25 03:25:50;;;;;;;;;0.67;0.33;;;;;-147.17;100.00;-15917.19;4994861;28;51154;-76
2022/06/25 03:28:15;;;;;;;;;0.33;0.00;;;;;-147.17;100.00;-15917.19;5006913;28;50977;-76
2022/06/25 03:30:41;;;;;;;;;0.00;0.00;;;;;-147.17;100.00;-15917.19;5006910;28;51918;-74
2022/06/25 03:33:07;;;;;;;;;0.67;0.00;;;;;-147.17;100.00;-15917.19;5013112;28;51516;-76
2022/06/25 03:35:32;;;;;;;;;0.00;0.00;;;;;-147.17;100.00;-15917.19;4994651;28;50931;-76
2022/06/25 03:37:57;;;;;;;;;0.00;0.00;;;;;-147.17;100.00;-15917.19;4999102;28;51163;-75
2022/06/25 03:40:23;;;;;;;;;0.00;0.00;;;;;-147.17;100.00;-15917.19;5001262;28;51915;-76
2022/06/25 03:42:49;;;;;;;;;0.67;0.00;;;;;-147.17;100.00;-15917.19;4994501;28;51056;-76
2022/06/25 03:45:15;;;;;;;;;0.00;0.00;;;;;-147.17;100.00;-15917.19;5004527;28;51233;-76
2022/06/25 03:47:40;;;;;;;;;0.33;0.33;;;;;-147.17;100.00;-15917.19;4994574;28;51545;-76
2022/06/25 03:50:07;;;;;;;;;0.67;0.67;;;;;-147.17;100.00;-15917.19;4995905;28;52099;-75
2022/06/25 03:52:33;;;;;;;;;1.00;0.00;;;;;-147.17;100.00;-15917.19;4999954;28;51064;-74
2022/06/25 03:54:58;;;;;;;;;0.00;0.00;;;;;-147.17;100.00;-15917.19;5008210;28;51188;-76
2022/06/25 03:57:24;;;;;;;;;0.00;0.00;;;;;-147.17;100.00;-15917.19;5013889;28;51044;-76
2022/06/25 03:59:50;;;;;;;;;0.33;0.33;;;;;-147.17;100.00;-15917.19;5003917;28;52880;-74
2022/06/25 04:02:16;;;;;;;;;0.67;0.00;;;;;-147.17;100.00;-15917.19;4998245;28;51274;-76
2022/06/25 04:04:41;;;;;;;;;0.00;0.00;;;;;-147.17;100.00;-15917.19;5009323;28;50971;-75
2022/06/25 04:07:06;;;;;;;;;0.00;0.00;;;;;-147.17;100.00;-15917.19;4994552;28;51001;-76
2022/06/25 04:09:32;;;;;;;;;0.67;0.67;;;;;-147.17;100.00;-15917.19;5006400;28;51094;-76
2022/06/25 04:11:57;;;;;;;;;0.67;0.67;;;;;-147.17;100.00;-15917.19;5000983;28;50889;-74
2022/06/25 04:14:23;;;;;;;;;0.00;0.00;;;;;-147.17;100.00;-15917.19;4992602;28;51054;-76
2022/06/25 04:16:49;;;;;;;;;0.67;0.67;;;;;-147.17;100.00;-15917.19;5033329;28;51277;-76
2022/06/25 04:19:14;;;;;;;;;0.00;0.00;;;;;-147.17;100.00;-15917.19;5000774;28;53304;-75
2022/06/25 04:21:40;;;;;;;;;0.67;0.67;;;;;-147.17;100.00;-15917.19;4995009;28;51082;-76
2022/06/25 04:24:05;;;;;;;;;0.00;0.00;;;;;-147.17;100.00;-15917.19;4995523;28;51481;-77
2022/06/25 04:26:31;;;;;;;;;0.33;0.33;;;;;-147.17;100.00;-15917.19;5005636;28;51140;-74
2022/06/25 04:29:08;;;;;;;;;0.67;0.67;;;;;-147.17;100.00;-15917.19;5003056;28;51177;-75
2022/06/25 04:31:37;;;;;;;;;0.67;0.67;;;;;-147.17;100.00;-15917.19;4998104;28;51016;-76
2022/06/25 04:34:03;;;;;;;;;1.00;0.67;;;;;-147.17;100.00;-15917.19;5008524;28;50994;-75
2022/06/25 04:36:30;;;;;;;;;1.00;0.67;;;;;-147.17;100.00;-15917.19;5005696;28;51241;-76
2022/06/25 04:38:55;;;;;;;;;1.00;1.00;;;;;-147.17;100.00;-15917.19;4997349;28;51146;-74
2022/06/25 04:41:22;;;;;;;;;0.33;0.33;;;;;-147.17;100.00;-15917.19;5003162;28;51195;-75
2022/06/25 04:43:48;;;;;;;;;1.67;1.67;;;;;-147.17;100.00;-15917.19;4999262;28;51088;-76
2022/06/25 04:46:14;;;;;;;;;0.67;0.67;;;;;-147.17;100.00;-15917.19;5001358;28;51328;-74
2022/06/25 04:48:39;;;;;;;;;2.00;2.00;;;;;-147.17;100.00;-15917.19;5000083;28;51224;-75
2022/06/25 04:51:05;;;;;;;;;0.33;0.33;;;;;-147.17;100.00;-15917.19;4999709;28;51065;-75
2022/06/25 04:53:31;;;;;;;;;1.00;1.00;;;;;-147.17;100.00;-15917.19;5000024;28;51072;-75
2022/06/25 04:55:56;;;;;;;;;0.67;0.67;;;;;-147.17;100.00;-15917.19;4996561;28;51267;-75
2022/06/25 04:58:22;;;;;;;;;1.00;1.00;;;;;-147.17;100.00;-15917.19;5003251;28;51202;-75
2022/06/25 05:00:47;;;;;;;;;1.67;0.67;;;;;-147.17;100.00;-15917.19;5011280;28;51088;-75
2022/06/25 05:03:12;;;;;;;;;1.67;0.67;;;;;-147.17;100.00;-15917.19;5009452;28;50921;-75
2022/06/25 05:05:38;;;;;;;;;2.00;2.00;;;;;-147.17;100.00;-15917.19;5019471;28;51081;-74
2022/06/25 05:08:03;;;;;;;;;0.67;0.67;;;;;-147.17;100.00;-15917.19;5005653;28;51265;-75
2022/06/25 05:10:29;;;;;;;;;2.67;2.67;;;;;-147.17;100.00;-15917.19;5000970;28;51049;-75
2022/06/25 05:13:12;;;;;;;;;1.67;1.67;;;;;-147.17;100.00;-15917.19;4991696;28;50965;-75
2022/06/25 05:15:39;;;;;;;;;1.00;1.00;;;;;-147.17;100.00;-15917.19;4999339;28;51093;-74
2022/06/25 05:18:06;;;;;;;;;0.67;0.67;;;;;-147.17;100.00;-15917.19;5003394;28;51957;-75
2022/06/25 05:20:31;;;;;;;;;0.00;0.00;;;;;-147.17;100.00;-15917.19;5010043;28;51218;-76
2022/06/25 05:22:57;;;;;;;;;1.00;1.00;;;;;-147.17;100.00;-15917.19;5011427;28;51445;-76
2022/06/25 05:25:22;;;;;;;;;2.00;2.00;;;;;-147.17;100.00;-15917.19;5026609;28;51249;-75
2022/06/25 05:27:47;;;;;;;;;1.00;1.00;;;;;-147.17;100.00;-15917.19;5009853;28;51843;-73
2022/06/25 05:30:13;;;;;;;;;0.00;0.00;;;;;-147.17;100.00;-15917.19;5004625;28;51127;-75
2022/06/25 05:32:39;;;;;;;;;1.00;1.00;;;;;-147.17;100.00;-15917.19;4997916;28;51063;-75
2022/06/25 05:35:04;;;;;;;;;1.33;1.33;;;;;-147.17;100.00;-15917.19;5011423;28;51418;-75
2022/06/25 05:37:30;;;;;;;;;2.00;2.00;;;;;-147.17;100.00;-15917.19;5004803;28;51154;-75
2022/06/25 05:39:55;;;;;;;;;1.00;1.00;;;;;-147.17;100.00;-15917.19;5010482;28;51138;-74
2022/06/25 05:42:20;;;;;;;;;2.00;1.67;;;;;-147.17;100.00;-15917.19;4992772;28;51030;-75
2022/06/25 05:44:47;;;;;;;;;0.00;0.00;;;;;-147.17;100.00;-15917.19;4993904;28;51126;-75
2022/06/25 05:47:13;;;;;;;;;1.00;1.00;;;;;-147.17;100.00;-15917.19;5007323;28;52277;-76
2022/06/25 05:49:38;;;;;;;;;1.00;1.00;;;;;-147.17;100.00;-15917.19;5012535;28;50914;-75
2022/06/25 05:52:05;;;;;;;;;1.00;1.00;;;;;-147.17;100.00;-15917.19;5005311;28;51015;-75
2022/06/25 05:54:30;;;;;;;;;0.00;0.00;;;;;-147.17;100.00;-15917.19;5024796;28;51263;-76
2022/06/25 05:56:55;;;;;;;;;2.67;2.00;;;;;-147.17;100.00;-15917.19;5014082;28;52203;-75
2022/06/25 05:59:20;;;;;;;;;2.00;1.00;;;;;-147.17;100.00;-15917.19;5012686;28;51188;-74
2022/06/25 06:01:46;;;;;;;;;1.00;1.00;;;;;-147.17;100.00;-15917.19;5025707;28;51274;-76
2022/06/25 06:04:11;;;;;;;;;1.33;1.33;;;;;-147.17;100.00;-15917.19;5000830;28;51375;-76
2022/06/25 06:06:37;;;;;;;;;1.00;1.00;;;;;-147.17;100.00;-15917.19;5017315;28;52128;-76
2022/06/25 06:09:02;;;;;;;;;1.00;0.00;;;;;-147.17;100.00;-15917.19;5005291;28;51551;-76
2022/06/25 06:11:28;;;;;;;;;1.00;1.00;;;;;-147.17;100.00;-15917.19;5006352;28;51279;-75
2022/06/25 06:13:53;;;;;;;;;0.00;0.00;;;;;-147.17;100.00;-15917.19;5007643;28;51199;-75
2022/06/25 06:16:18;;;;;;;;;1.00;1.00;;;;;-147.17;100.00;-15917.19;5021095;28;51750;-77
2022/06/25 06:18:43;;;;;;;;;1.00;1.00;;;;;-147.17;100.00;-15917.19;5026238;28;51238;-76
2022/06/25 06:21:09;;;;;;;;;1.67;1.33;;;;;-147.17;100.00;-15917.19;5000841;28;51100;-75
2022/06/25 06:23:34;;;;;;;;;0.33;0.00;;;;;-147.17;100.00;-15917.19;5003373;28;51110;-75
2022/06/25 06:25:59;;;;;;;;;3.67;3.33;;;;;-147.17;100.00;-15917.19;4995290;28;51812;-74
2022/06/25 06:28:25;;;;;;;;;2.00;1.00;;;;;-147.17;100.00;-15917.19;5021147;28;51224;-75
2022/06/25 06:30:50;;;;;;;;;1.00;1.00;;;;;-147.17;100.00;-15917.19;5014730;28;51239;-76
2022/06/25 06:33:15;;;;;;;;;2.67;1.67;;;;;-147.17;100.00;-15917.19;4999053;28;51144;-75
2022/06/25 06:35:41;;;;;;;;;2.00;1.33;;;;;-147.17;100.00;-15917.19;4996638;28;50955;-74
2022/06/25 06:38:06;;;;;;;;;4.00;4.00;;;;;-147.17;100.00;-15917.19;5010023;28;51189;-76
2022/06/25 06:40:32;;;;;;;;;2.67;2.67;;;;;-147.17;100.00;-15917.19;5003856;28;50927;-76
2022/06/25 06:42:57;;;;;;;;;2.67;2.00;;;;;-147.17;100.00;-15917.19;5011124;28;51082;-76
2022/06/25 06:45:23;;;;;;;;;1.00;1.00;;;;;-147.17;100.00;-15917.19;5012689;28;52299;-74
2022/06/25 06:47:48;;;;;;;;;2.00;2.00;;;;;-147.17;100.00;-15917.19;5009331;28;50989;-74
2022/06/25 06:50:13;;;;;;;;;2.00;2.00;;;;;-147.17;100.00;-15917.19;5001532;28;54308;-72
2022/06/25 06:52:39;;;;;;;;;2.67;1.00;;;;;-147.17;100.00;-15917.19;5002454;28;50936;-73
2022/06/25 06:55:05;;;;;;;;;5.33;5.00;;;;;-147.17;100.00;-15917.19;5003677;28;54429;-73
2022/06/25 06:57:32;;;;;;;;;3.00;2.00;;;;;-147.17;100.00;-15917.19;5011303;28;51140;-73
2022/06/25 07:00:00;;;;;;;;;3.00;3.00;;;;;-147.17;100.00;-15917.19;5004932;28;51028;-74
2022/06/25 07:02:26;;;;;;;;;2.00;2.00;;;;;-147.17;100.00;-15917.19;5003072;28;51388;-75
2022/06/25 07:04:52;;;;;;;;;3.00;3.00;;;;;-147.17;100.00;-15917.19;5014536;28;51124;-74
2022/06/25 07:07:18;;;;;;;;;2.67;2.67;;;;;-147.17;100.00;-15917.19;5007690;28;50916;-73
2022/06/25 07:09:43;;;;;;;;;2.33;2.33;;;;;-147.17;100.00;-15917.19;4994961;28;50907;-76
2022/06/25 07:12:09;;;;;;;;;4.00;3.00;;;;;-147.17;100.00;-15917.19;4997530;28;50971;-77
2022/06/25 07:14:35;;;;;;;;;1.00;1.00;;;;;-147.17;100.00;-15917.19;5014311;28;51119;-77
2022/06/25 07:17:00;;;;;;;;;3.00;3.00;;;;;-147.17;100.00;-15917.19;5019896;28;51057;-75
2022/06/25 07:19:25;;;;;;;;;3.00;2.33;;;;;-147.17;100.00;-15917.19;5027232;28;51206;-75
2022/06/25 07:21:52;;;;;;;;;3.33;3.00;;;;;-147.17;100.00;-15917.19;5017372;28;51488;-76
2022/06/25 07:24:17;;;;;;;;;1.00;1.00;;;;;-147.17;100.00;-15917.19;5019925;28;53076;-76
2022/06/25 07:26:42;;;;;;;;;1.00;1.00;;;;;-147.17;100.00;-15917.19;5009738;28;52898;-76
2022/06/25 07:29:08;;;;;;;;;0.00;0.00;;;;;-147.17;100.00;-15917.19;5007927;28;51223;-76
2022/06/25 07:31:33;;;;;;;;;2.00;2.00;;;;;-147.17;100.00;-15917.19;5002715;28;51156;-77
2022/06/25 07:33:59;;;;;;;;;1.33;1.00;;;;;-147.17;100.00;-15917.19;5007132;28;52858;-77
2022/06/25 07:36:24;;;;;;;;;3.00;2.00;;;;;-147.17;100.00;-15917.19;4999016;28;51149;-78
2022/06/25 07:38:49;;;;;;;;;4.33;4.33;;;;;-147.17;100.00;-15917.19;5000844;28;51177;-74
2022/06/25 07:41:15;;;;;;;;;1.00;1.00;;;;;-147.17;100.00;-15917.19;5010406;28;51238;-78
2022/06/25 07:43:40;;;;;;;;;3.00;2.00;;;;;-147.17;100.00;-15917.19;5011501;28;51698;-77
2022/06/25 07:46:05;;;;;;;;;21.67;19.33;;;;;-147.17;100.00;-15917.19;5006534;28;51102;-77
2022/06/25 07:48:31;;;;;;;;;5.67;5.00;;;;;-147.17;100.00;-15917.19;5005032;28;51091;-74
2022/06/25 07:53:40;;;;;;;;;1.00;0.33;;;;;-147.17;100.00;-15917.19;4998033;28;51600;-77
2022/06/25 07:56:06;;;;;;;;;2.00;1.33;;;;;-147.17;100.00;-15917.19;4991897;28;51059;-78
2022/06/25 07:58:32;;;;;;;;;2.00;2.00;;;;;-147.17;100.00;-15917.19;5005831;28;51149;-76
2022/06/25 08:00:57;;;;;;;;;2.00;2.00;;;;;-147.17;100.00;-15917.19;5000249;28;51395;-77
2022/06/25 08:03:22;;;;;;;;;3.00;3.00;;;;;-147.17;100.00;-15917.19;5005633;28;52240;-74
2022/06/25 08:05:49;;;;;;;;;1.00;1.00;;;;;-147.17;100.00;-15917.19;5003119;28;51303;-74
2022/06/25 08:08:15;;;;;;;;;2.00;2.00;;;;;-147.17;100.00;-15917.19;5003170;28;51227;-74
2022/06/25 08:10:40;;;;;;;;;1.00;1.00;;;;;-147.17;100.00;-15917.19;5008697;28;51025;-75
2022/06/25 08:13:06;;;;;;;;;2.00;2.00;;;;;-147.17;100.00;-15917.19;5010754;28;51933;-75
2022/06/25 08:15:31;;;;;;;;;0.33;0.33;;;;;-147.17;100.00;-15917.19;5010978;28;51145;-75
2022/06/25 08:17:57;;;;;;;;;2.33;2.33;;;;;-147.17;100.00;-15917.19;5012133;28;51191;-76
2022/06/25 08:20:22;;;;;;;;;2.33;1.00;;;;;-147.17;100.00;-15917.19;5013715;28;51302;-76
2022/06/25 08:22:48;;;;;;;;;1.33;1.33;;;;;-147.17;100.00;-15917.19;5008641;28;51836;-78
2022/06/25 08:25:14;;;;;;;;;2.00;2.00;;;;;-147.17;100.00;-15917.19;5008635;28;51199;-79
2022/06/25 08:27:50;;;;;;;;;2.00;1.00;;;;;-147.17;100.00;-15917.19;5014250;28;51167;-77
2022/06/25 08:30:17;;;;;;;;;2.33;2.00;;;;;-147.17;100.00;-15917.19;5004061;28;51066;-77
2022/06/25 08:32:42;;;;;;;;;2.00;2.00;;;;;-147.17;100.00;-15917.19;5007422;28;51760;-78
2022/06/25 08:35:08;;;;;;;;;1.33;1.00;;;;;-147.17;100.00;-15917.19;5007766;28;51141;-78
2022/06/25 08:37:43;;;;;;;;;2.33;2.33;;;;;-147.17;100.00;-15917.19;5010930;28;51088;-77
2022/06/25 08:40:09;;;;;;;;;5.33;5.00;;;;;-147.17;100.00;-15917.19;4999899;28;51383;-78
2022/06/25 08:42:36;;;;;;;;;2.67;2.67;;;;;-147.17;100.00;-15917.19;5000038;28;51275;-78
2022/06/25 08:45:02;;;;;;;;;5.33;5.00;;;;;-147.17;100.00;-15917.19;5007367;28;51097;-78
2022/06/25 08:47:28;;;;;;;;;2.00;2.00;;;;;-147.17;100.00;-15917.19;5008433;28;51222;-77
2022/06/25 08:49:53;;;;;;;;;6.33;5.33;;;;;-147.17;100.00;-15917.19;5005362;28;51157;-77
2022/06/25 08:52:19;;;;;;;;;6.00;6.00;;;;;-147.17;100.00;-15917.19;5003832;28;51379;-77
2022/06/25 08:54:45;;;;;;;;;5.00;5.00;;;;;-147.17;100.00;-15917.19;5005563;28;51182;-78
2022/06/25 08:57:11;;;;;;;;;2.67;2.00;;;;;-147.17;100.00;-15917.19;5005853;28;51195;-78
2022/06/25 08:59:38;;;;;;;;;1.67;1.00;;;;;-147.17;100.00;-15917.19;5004409;28;51504;-75
2022/06/25 09:02:03;;;;;;;;;3.00;3.00;;;;;-147.17;100.00;-15917.19;5011651;28;53185;-67
2022/06/25 09:04:28;;;;;;;;;1.67;1.00;;;;;-147.17;100.00;-15917.19;5009124;28;51040;-68
2022/06/25 09:07:14;;;;;;;;;1.00;1.00;;;;;-147.17;100.00;-15917.19;5007919;28;52317;-67
2022/06/25 09:09:45;;;;;;;;;2.00;2.00;;;;;-147.17;100.00;-15917.19;5005371;28;50989;-67
2022/06/25 09:12:13;;;;;;;;;2.67;2.67;;;;;-147.17;100.00;-15917.19;4999079;28;52840;-66
2022/06/25 09:14:39;;;;;;;;;3.00;3.00;;;;;-147.17;100.00;-15917.19;4999692;28;51095;-68
2022/06/25 09:17:12;;;;;;;;;2.00;2.00;;;;;-147.17;100.00;-15917.19;4998356;28;51704;-68
2022/06/25 09:19:45;;;;;;;;;4.00;2.00;;;;;-147.17;100.00;-15917.19;5007787;28;50991;-68
2022/06/25 09:22:23;;;;;;;;;7.00;7.00;;;;;-147.17;100.00;-15917.19;5008173;28;51924;-67
2022/06/25 09:24:57;;;;;;;;;17.00;17.00;;;;;-147.17;100.00;-15917.19;4998638;28;51057;-69
2022/06/25 09:27:28;;;;;;;;;27.00;26.50;;;;;-147.17;100.00;-15917.19;4995155;28;51137;-70
2022/06/25 09:29:54;;;;;;;;;3.00;2.00;;;;;-147.17;100.00;-15917.19;5000986;28;51162;-67
2022/06/25 09:32:19;;;;;;;;;14.00;12.67;;;;;-147.17;100.00;-15917.19;5003454;28;51041;-69
2022/06/25 09:34:45;;;;;;;;;5.67;5.67;;;;;-147.17;100.00;-15917.19;5032400;28;51045;-68
2022/06/25 09:37:30;;;;;;;;;3.67;3.00;;;;;-147.17;100.00;-15917.19;5001586;28;51069;-68
2022/06/25 09:39:56;;;;;;;;;2.00;2.00;;;;;-147.17;100.00;-15917.19;4998278;28;50943;-65
2022/06/25 09:42:40;;;;;;;;;2.00;2.00;;;;;-147.17;100.00;-15917.19;5003753;28;50938;-67
2022/06/25 09:45:10;;;;;;;;;4.00;3.00;;;;;-147.17;100.00;-15917.19;5006439;28;50995;-67
2022/06/25 09:47:43;;;;;;;;;2.00;2.00;;;;;-147.17;100.00;-15917.19;5007666;28;51156;-68
2022/06/25 09:50:16;;;;;;;;;3.67;3.00;;;;;-147.17;100.00;-15917.19;4998580;28;51227;-68
2022/06/25 09:52:56;;;;;;;;;2.00;2.00;;;;;-147.17;100.00;-15917.19;5004608;28;51106;-67
2022/06/25 09:55:37;;;;;;;;;4.00;3.00;;;;;-147.17;100.00;-15917.19;5002561;28;51103;-66
2022/06/25 09:58:03;;;;;;;;;7.00;6.00;;;;;-147.17;100.00;-15917.19;5004158;28;51302;-66
2022/06/25 10:00:30;;;;;;;;;4.00;3.33;;;;;-147.17;100.00;-15917.19;5003440;28;50981;-67
2022/06/25 10:02:57;;;;;;;;;15.25;15.00;;;;;-147.17;100.00;-15917.19;5002702;28;51002;-69
2022/06/25 10:05:34;;;;;;;;;4.00;4.00;;;;;-147.17;100.00;-15917.19;5008033;28;51058;-67
2022/06/25 10:08:04;;;;;;;;;4.00;3.33;;;;;-147.17;100.00;-15917.19;4985448;28;51048;-68
2022/06/25 10:10:39;;;;;;;;;6.00;6.00;;;;;-147.17;100.00;-15917.19;4995481;28;51396;-66
2022/06/25 10:13:06;;;;;;;;;5.67;5.67;;;;;-147.17;100.00;-15917.19;4994383;28;52424;-67
2022/06/25 10:15:32;;;;;;;;;3.67;3.00;;;;;-147.17;100.00;-15917.19;4995609;28;51408;-65
2022/06/25 10:18:06;;;;;;;;;7.00;6.00;;;;;-147.17;100.00;-15917.19;4989777;28;51080;-66
2022/06/25 10:20:33;;;;;;;;;8.00;8.00;;;;;-147.17;100.00;-15917.19;4993471;28;51289;-65
2022/06/25 10:23:01;;;;;;;;;4.67;4.67;;;;;-147.17;100.00;-15917.19;4996572;28;52208;-66
2022/06/25 10:25:29;;;;;;;;;2.33;2.33;;;;;-147.17;100.00;-15917.19;5014614;28;51319;-66
2022/06/25 10:28:12;;;;;;;;;6.00;6.00;;;;;-147.17;100.00;-15917.19;5004723;28;51298;-67
2022/06/25 10:30:45;;;;;;;;;4.00;4.00;;;;;-147.17;100.00;-15917.19;4994736;28;52963;-67
2022/06/25 10:33:12;;;;;;;;;3.00;3.00;;;;;-147.17;100.00;-15917.19;4993903;28;51235;-66
2022/06/25 10:35:39;;;;;;;;;4.00;4.00;;;;;-147.17;100.00;-15917.19;5000638;28;51067;-66
2022/06/25 10:38:10;;;;;;;;;13.67;12.67;;;;;-147.17;100.00;-15917.19;4996137;28;51284;-66
2022/06/25 10:40:57;;;;;;;;;5.33;5.33;;;;;-147.17;100.00;-15917.19;4999106;28;51213;-67
2022/06/25 10:43:52;;;;;;;;;8.67;6.00;;;;;-147.17;100.00;-15917.19;4996622;28;51333;-67
2022/06/25 10:46:37;;;;;;;;;5.00;5.00;;;;;-147.17;100.00;-15917.19;4994051;28;51422;-67
2022/06/25 10:49:12;;;;;;;;;6.00;5.67;;;;;-147.17;100.00;-15917.19;4999450;28;51258;-65
2022/06/25 10:51:41;;;;;;;;;13.67;13.67;;;;;-147.17;100.00;-15917.19;4999394;28;51608;-66
2022/06/25 10:54:23;;;;;;;;;3.67;3.33;;;;;-147.17;100.00;-15917.19;4993652;28;52671;-66
2022/06/25 10:56:51;;;;;;;;;3.00;2.67;;;;;-147.17;100.00;-15917.19;4997808;28;51175;-66
2022/06/25 10:59:39;;;;;;;;;3.00;3.00;;;;;-147.17;100.00;-15917.19;4996416;28;51262;-66
2022/06/25 11:02:07;;;;;;;;;6.00;6.00;;;;;-147.17;100.00;-15917.19;4987886;28;51311;-65
2022/06/25 11:04:34;;;;;;;;;7.33;6.33;;;;;-147.17;100.00;-15917.19;5010768;28;52488;-67
2022/06/25 11:07:08;;;;;;;;;4.00;3.33;;;;;-147.17;100.00;-15917.19;4993583;28;51190;-68